sensor_id;sensor_type;location;lat;lon;timestamp;P1;durP1;ratioP1;P2;durP2;ratioP2
64075;SDS011;50327;51.328;12.324;2023-03-24T00:00:11;3.80;;;1.90;;
64075;SDS011;50327;51.328;12.324;2023-03-24T00:02:38;4.75;;;1.65;;
64075;SDS011;50327;51.328;12.324;2023-03-24T00:05:15;4.43;;;1.70;;
64075;SDS011;50327;51.328;12.324;2023-03-24T00:07:41;4.20;;;1.60;;
64075;SDS011;50327;51.328;12.324;2023-03-24T00:10:08;6.22;;;2.42;;
64075;SDS011;50327;51.328;12.324;2023-03-24T00:12:35;6.47;;;2.55;;
64075;SDS011;50327;51.328;12.324;2023-03-24T00:15:03;9.45;;;2.70;;
64075;SDS011;50327;51.328;12.324;2023-03-24T00:17:29;9.45;;;3.00;;
64075;SDS011;50327;51.328;12.324;2023-03-24T00:19:54;8.75;;;2.78;;
64075;SDS011;50327;51.328;12.324;2023-03-24T00:22:20;5.72;;;2.05;;
64075;SDS011;50327;51.328;12.324;2023-03-24T00:24:45;7.00;;;2.58;;
64075;SDS011;50327;51.328;12.324;2023-03-24T00:27:11;6.90;;;2.30;;
64075;SDS011;50327;51.328;12.324;2023-03-24T00:29:37;6.30;;;2.17;;
64075;SDS011;50327;51.328;12.324;2023-03-24T00:32:02;4.00;;;2.05;;
64075;SDS011;50327;51.328;12.324;2023-03-24T00:34:28;4.20;;;2.00;;
64075;SDS011;50327;51.328;12.324;2023-03-24T00:36:53;7.05;;;2.42;;
64075;SDS011;50327;51.328;12.324;2023-03-24T00:39:19;6.15;;;2.55;;
64075;SDS011;50327;51.328;12.324;2023-03-24T00:41:45;5.30;;;2.13;;
64075;SDS011;50327;51.328;12.324;2023-03-24T00:44:11;4.93;;;2.00;;
64075;SDS011;50327;51.328;12.324;2023-03-24T00:46:45;6.50;;;2.10;;
64075;SDS011;50327;51.328;12.324;2023-03-24T00:49:10;5.35;;;2.00;;
64075;SDS011;50327;51.328;12.324;2023-03-24T00:51:40;9.13;;;1.75;;
64075;SDS011;50327;51.328;12.324;2023-03-24T00:54:06;6.57;;;2.55;;
64075;SDS011;50327;51.328;12.324;2023-03-24T00:56:33;4.15;;;2.05;;
64075;SDS011;50327;51.328;12.324;2023-03-24T00:58:59;5.15;;;2.20;;
64075;SDS011;50327;51.328;12.324;2023-03-24T01:01:26;6.20;;;2.20;;
64075;SDS011;50327;51.328;12.324;2023-03-24T01:03:53;3.35;;;2.00;;
64075;SDS011;50327;51.328;12.324;2023-03-24T01:06:20;3.75;;;2.17;;
64075;SDS011;50327;51.328;12.324;2023-03-24T01:08:46;5.47;;;2.42;;
64075;SDS011;50327;51.328;12.324;2023-03-24T01:11:13;6.75;;;2.70;;
64075;SDS011;50327;51.328;12.324;2023-03-24T01:13:40;4.45;;;2.13;;
64075;SDS011;50327;51.328;12.324;2023-03-24T01:16:06;7.97;;;2.28;;
64075;SDS011;50327;51.328;12.324;2023-03-24T01:18:31;5.40;;;2.58;;
64075;SDS011;50327;51.328;12.324;2023-03-24T01:20:58;6.53;;;2.20;;
64075;SDS011;50327;51.328;12.324;2023-03-24T01:23:25;6.70;;;2.67;;
64075;SDS011;50327;51.328;12.324;2023-03-24T01:25:51;6.57;;;2.65;;
64075;SDS011;50327;51.328;12.324;2023-03-24T01:28:18;6.38;;;2.50;;
64075;SDS011;50327;51.328;12.324;2023-03-24T01:33:10;6.50;;;2.47;;
64075;SDS011;50327;51.328;12.324;2023-03-24T01:35:36;6.25;;;2.45;;
64075;SDS011;50327;51.328;12.324;2023-03-24T01:38:05;5.50;;;2.40;;
64075;SDS011;50327;51.328;12.324;2023-03-24T01:40:31;7.55;;;3.10;;
64075;SDS011;50327;51.328;12.324;2023-03-24T01:42:57;6.20;;;2.83;;
64075;SDS011;50327;51.328;12.324;2023-03-24T01:48:07;5.60;;;2.58;;
64075;SDS011;50327;51.328;12.324;2023-03-24T01:50:33;17.48;;;2.90;;
64075;SDS011;50327;51.328;12.324;2023-03-24T01:52:58;5.40;;;2.40;;
64075;SDS011;50327;51.328;12.324;2023-03-24T01:55:25;5.25;;;2.58;;
64075;SDS011;50327;51.328;12.324;2023-03-24T01:57:52;5.22;;;2.20;;
64075;SDS011;50327;51.328;12.324;2023-03-24T02:00:17;12.40;;;3.20;;
64075;SDS011;50327;51.328;12.324;2023-03-24T02:02:45;6.40;;;2.60;;
64075;SDS011;50327;51.328;12.324;2023-03-24T02:05:13;5.28;;;2.83;;
64075;SDS011;50327;51.328;12.324;2023-03-24T02:07:40;5.78;;;2.80;;
64075;SDS011;50327;51.328;12.324;2023-03-24T02:10:08;6.45;;;3.00;;
64075;SDS011;50327;51.328;12.324;2023-03-24T02:12:35;6.88;;;3.22;;
64075;SDS011;50327;51.328;12.324;2023-03-24T02:15:01;9.65;;;3.42;;
64075;SDS011;50327;51.328;12.324;2023-03-24T02:22:59;8.73;;;3.22;;
64075;SDS011;50327;51.328;12.324;2023-03-24T02:43:52;8.82;;;3.20;;
64075;SDS011;50327;51.328;12.324;2023-03-24T02:48:50;8.77;;;3.38;;
64075;SDS011;50327;51.328;12.324;2023-03-24T02:51:26;7.03;;;3.33;;
64075;SDS011;50327;51.328;12.324;2023-03-24T02:59:03;10.35;;;3.60;;
64075;SDS011;50327;51.328;12.324;2023-03-24T03:01:34;6.60;;;2.95;;
64075;SDS011;50327;51.328;12.324;2023-03-24T03:04:15;6.35;;;3.22;;
64075;SDS011;50327;51.328;12.324;2023-03-24T03:06:42;6.53;;;3.22;;
64075;SDS011;50327;51.328;12.324;2023-03-24T03:09:12;11.10;;;3.47;;
64075;SDS011;50327;51.328;12.324;2023-03-24T03:11:40;6.70;;;3.20;;
64075;SDS011;50327;51.328;12.324;2023-03-24T03:14:08;15.30;;;3.38;;
64075;SDS011;50327;51.328;12.324;2023-03-24T03:16:45;8.90;;;3.78;;
64075;SDS011;50327;51.328;12.324;2023-03-24T03:19:22;7.93;;;3.00;;
64075;SDS011;50327;51.328;12.324;2023-03-24T03:21:48;5.75;;;3.17;;
64075;SDS011;50327;51.328;12.324;2023-03-24T03:24:17;9.55;;;3.67;;
64075;SDS011;50327;51.328;12.324;2023-03-24T03:26:50;7.10;;;3.47;;
64075;SDS011;50327;51.328;12.324;2023-03-24T03:29:17;5.55;;;3.00;;
64075;SDS011;50327;51.328;12.324;2023-03-24T03:31:50;6.93;;;3.15;;
64075;SDS011;50327;51.328;12.324;2023-03-24T03:34:35;7.72;;;2.65;;
64075;SDS011;50327;51.328;12.324;2023-03-24T03:39:31;8.57;;;3.33;;
64075;SDS011;50327;51.328;12.324;2023-03-24T03:41:57;7.85;;;3.22;;
64075;SDS011;50327;51.328;12.324;2023-03-24T03:44:22;7.07;;;2.70;;
64075;SDS011;50327;51.328;12.324;2023-03-24T03:46:48;8.10;;;3.22;;
64075;SDS011;50327;51.328;12.324;2023-03-24T03:49:13;9.55;;;3.03;;
64075;SDS011;50327;51.328;12.324;2023-03-24T03:51:38;10.57;;;3.40;;
64075;SDS011;50327;51.328;12.324;2023-03-24T03:54:05;7.40;;;3.00;;
64075;SDS011;50327;51.328;12.324;2023-03-24T03:56:33;8.70;;;3.03;;
64075;SDS011;50327;51.328;12.324;2023-03-24T03:58:58;4.78;;;2.60;;
64075;SDS011;50327;51.328;12.324;2023-03-24T04:01:25;8.95;;;4.15;;
64075;SDS011;50327;51.328;12.324;2023-03-24T04:16:59;9.15;;;3.55;;
64075;SDS011;50327;51.328;12.324;2023-03-24T04:35:03;6.97;;;3.70;;
64075;SDS011;50327;51.328;12.324;2023-03-24T04:37:31;12.73;;;4.55;;
64075;SDS011;50327;51.328;12.324;2023-03-24T04:40:02;8.25;;;3.83;;
64075;SDS011;50327;51.328;12.324;2023-03-24T04:42:33;9.95;;;4.13;;
64075;SDS011;50327;51.328;12.324;2023-03-24T04:45:00;6.35;;;3.47;;
64075;SDS011;50327;51.328;12.324;2023-03-24T04:47:27;7.28;;;3.58;;
64075;SDS011;50327;51.328;12.324;2023-03-24T04:49:59;6.65;;;3.20;;
64075;SDS011;50327;51.328;12.324;2023-03-24T04:52:25;6.75;;;3.15;;
64075;SDS011;50327;51.328;12.324;2023-03-24T04:54:51;6.30;;;3.33;;
64075;SDS011;50327;51.328;12.324;2023-03-24T04:57:17;6.55;;;2.60;;
64075;SDS011;50327;51.328;12.324;2023-03-24T04:59:42;7.43;;;3.38;;
64075;SDS011;50327;51.328;12.324;2023-03-24T05:02:07;13.77;;;3.63;;
64075;SDS011;50327;51.328;12.324;2023-03-24T05:04:33;7.68;;;3.15;;
64075;SDS011;50327;51.328;12.324;2023-03-24T05:07:00;5.82;;;2.80;;
64075;SDS011;50327;51.328;12.324;2023-03-24T05:09:26;7.20;;;3.30;;
64075;SDS011;50327;51.328;12.324;2023-03-24T05:11:51;8.43;;;3.33;;
64075;SDS011;50327;51.328;12.324;2023-03-24T05:14:16;5.13;;;2.60;;
64075;SDS011;50327;51.328;12.324;2023-03-24T05:16:42;4.70;;;2.50;;
64075;SDS011;50327;51.328;12.324;2023-03-24T05:19:07;6.25;;;3.13;;
64075;SDS011;50327;51.328;12.324;2023-03-24T05:21:33;6.53;;;2.50;;
64075;SDS011;50327;51.328;12.324;2023-03-24T05:23:58;7.78;;;2.85;;
64075;SDS011;50327;51.328;12.324;2023-03-24T05:26:23;5.90;;;3.05;;
64075;SDS011;50327;51.328;12.324;2023-03-24T05:28:50;5.63;;;3.17;;
64075;SDS011;50327;51.328;12.324;2023-03-24T05:31:15;7.10;;;2.85;;
64075;SDS011;50327;51.328;12.324;2023-03-24T05:33:40;7.18;;;3.08;;
64075;SDS011;50327;51.328;12.324;2023-03-24T05:36:06;8.70;;;2.83;;
64075;SDS011;50327;51.328;12.324;2023-03-24T05:38:31;7.57;;;3.08;;
64075;SDS011;50327;51.328;12.324;2023-03-24T05:40:57;6.05;;;2.72;;
64075;SDS011;50327;51.328;12.324;2023-03-24T05:43:23;6.13;;;2.90;;
64075;SDS011;50327;51.328;12.324;2023-03-24T05:45:48;6.82;;;2.70;;
64075;SDS011;50327;51.328;12.324;2023-03-24T05:48:13;6.20;;;3.25;;
64075;SDS011;50327;51.328;12.324;2023-03-24T05:50:38;7.43;;;3.30;;
64075;SDS011;50327;51.328;12.324;2023-03-24T05:53:03;6.28;;;3.03;;
64075;SDS011;50327;51.328;12.324;2023-03-24T05:55:29;8.65;;;3.60;;
64075;SDS011;50327;51.328;12.324;2023-03-24T05:57:54;8.20;;;2.75;;
64075;SDS011;50327;51.328;12.324;2023-03-24T06:00:20;6.68;;;2.55;;
64075;SDS011;50327;51.328;12.324;2023-03-24T06:02:45;5.80;;;2.33;;
64075;SDS011;50327;51.328;12.324;2023-03-24T06:05:11;5.85;;;2.75;;
64075;SDS011;50327;51.328;12.324;2023-03-24T06:07:37;5.90;;;3.17;;
64075;SDS011;50327;51.328;12.324;2023-03-24T06:10:03;8.35;;;3.38;;
64075;SDS011;50327;51.328;12.324;2023-03-24T06:12:28;6.78;;;3.30;;
64075;SDS011;50327;51.328;12.324;2023-03-24T06:14:55;7.25;;;3.05;;
64075;SDS011;50327;51.328;12.324;2023-03-24T06:17:20;7.22;;;3.67;;
64075;SDS011;50327;51.328;12.324;2023-03-24T06:19:46;9.45;;;3.90;;
64075;SDS011;50327;51.328;12.324;2023-03-24T06:22:16;5.32;;;2.72;;
64075;SDS011;50327;51.328;12.324;2023-03-24T06:24:42;6.93;;;3.20;;
64075;SDS011;50327;51.328;12.324;2023-03-24T06:27:07;7.80;;;3.15;;
64075;SDS011;50327;51.328;12.324;2023-03-24T06:29:33;6.85;;;3.05;;
64075;SDS011;50327;51.328;12.324;2023-03-24T06:31:58;8.73;;;3.13;;
64075;SDS011;50327;51.328;12.324;2023-03-24T06:34:23;7.40;;;2.85;;
64075;SDS011;50327;51.328;12.324;2023-03-24T06:36:53;8.63;;;3.38;;
64075;SDS011;50327;51.328;12.324;2023-03-24T06:39:18;10.57;;;2.92;;
64075;SDS011;50327;51.328;12.324;2023-03-24T06:41:44;5.57;;;2.72;;
64075;SDS011;50327;51.328;12.324;2023-03-24T06:44:09;5.95;;;2.75;;
64075;SDS011;50327;51.328;12.324;2023-03-24T06:46:34;6.18;;;2.85;;
64075;SDS011;50327;51.328;12.324;2023-03-24T06:48:59;13.05;;;3.08;;
64075;SDS011;50327;51.328;12.324;2023-03-24T06:51:25;8.80;;;2.92;;
64075;SDS011;50327;51.328;12.324;2023-03-24T06:53:50;11.05;;;3.20;;
64075;SDS011;50327;51.328;12.324;2023-03-24T06:56:15;6.88;;;2.70;;
64075;SDS011;50327;51.328;12.324;2023-03-24T06:58:42;4.80;;;2.60;;
64075;SDS011;50327;51.328;12.324;2023-03-24T07:01:07;6.35;;;2.80;;
64075;SDS011;50327;51.328;12.324;2023-03-24T07:03:32;5.45;;;2.45;;
64075;SDS011;50327;51.328;12.324;2023-03-24T07:05:57;4.53;;;2.20;;
64075;SDS011;50327;51.328;12.324;2023-03-24T07:08:23;5.65;;;2.67;;
64075;SDS011;50327;51.328;12.324;2023-03-24T07:10:48;7.80;;;2.35;;
64075;SDS011;50327;51.328;12.324;2023-03-24T07:13:14;6.93;;;2.60;;
64075;SDS011;50327;51.328;12.324;2023-03-24T07:15:39;6.38;;;2.20;;
64075;SDS011;50327;51.328;12.324;2023-03-24T07:18:04;9.23;;;2.85;;
64075;SDS011;50327;51.328;12.324;2023-03-24T07:20:30;6.75;;;2.90;;
64075;SDS011;50327;51.328;12.324;2023-03-24T07:22:56;6.18;;;2.65;;
64075;SDS011;50327;51.328;12.324;2023-03-24T07:25:21;3.78;;;2.10;;
64075;SDS011;50327;51.328;12.324;2023-03-24T07:27:46;8.40;;;3.08;;
64075;SDS011;50327;51.328;12.324;2023-03-24T07:30:12;10.77;;;2.90;;
64075;SDS011;50327;51.328;12.324;2023-03-24T07:32:37;6.57;;;2.80;;
64075;SDS011;50327;51.328;12.324;2023-03-24T07:35:06;5.03;;;2.40;;
64075;SDS011;50327;51.328;12.324;2023-03-24T07:37:31;6.00;;;2.42;;
64075;SDS011;50327;51.328;12.324;2023-03-24T07:39:56;7.43;;;1.92;;
64075;SDS011;50327;51.328;12.324;2023-03-24T07:42:22;4.65;;;2.28;;
64075;SDS011;50327;51.328;12.324;2023-03-24T07:44:47;4.95;;;2.10;;
64075;SDS011;50327;51.328;12.324;2023-03-24T07:47:13;5.57;;;2.53;;
64075;SDS011;50327;51.328;12.324;2023-03-24T07:49:38;5.82;;;2.20;;
64075;SDS011;50327;51.328;12.324;2023-03-24T07:52:03;5.18;;;2.15;;
64075;SDS011;50327;51.328;12.324;2023-03-24T07:54:31;4.72;;;2.50;;
64075;SDS011;50327;51.328;12.324;2023-03-24T07:56:58;4.75;;;2.00;;
64075;SDS011;50327;51.328;12.324;2023-03-24T07:59:23;5.97;;;2.28;;
64075;SDS011;50327;51.328;12.324;2023-03-24T08:01:48;6.88;;;3.63;;
64075;SDS011;50327;51.328;12.324;2023-03-24T08:04:14;4.20;;;1.77;;
64075;SDS011;50327;51.328;12.324;2023-03-24T08:06:41;5.57;;;2.30;;
64075;SDS011;50327;51.328;12.324;2023-03-24T08:09:07;7.23;;;2.17;;
64075;SDS011;50327;51.328;12.324;2023-03-24T08:11:33;5.03;;;2.20;;
64075;SDS011;50327;51.328;12.324;2023-03-24T08:13:59;3.85;;;2.00;;
64075;SDS011;50327;51.328;12.324;2023-03-24T08:16:25;5.78;;;1.90;;
64075;SDS011;50327;51.328;12.324;2023-03-24T08:18:50;5.18;;;1.80;;
64075;SDS011;50327;51.328;12.324;2023-03-24T08:21:16;5.38;;;2.00;;
64075;SDS011;50327;51.328;12.324;2023-03-24T08:23:41;4.78;;;1.98;;
64075;SDS011;50327;51.328;12.324;2023-03-24T08:26:07;6.43;;;1.95;;
64075;SDS011;50327;51.328;12.324;2023-03-24T08:28:34;5.05;;;2.00;;
64075;SDS011;50327;51.328;12.324;2023-03-24T08:30:59;4.07;;;1.73;;
64075;SDS011;50327;51.328;12.324;2023-03-24T08:33:25;4.00;;;1.63;;
64075;SDS011;50327;51.328;12.324;2023-03-24T08:35:50;6.45;;;1.70;;
64075;SDS011;50327;51.328;12.324;2023-03-24T08:38:21;3.50;;;1.55;;
64075;SDS011;50327;51.328;12.324;2023-03-24T08:40:47;5.63;;;2.08;;
64075;SDS011;50327;51.328;12.324;2023-03-24T08:43:14;3.50;;;1.60;;
64075;SDS011;50327;51.328;12.324;2023-03-24T08:45:39;7.50;;;1.70;;
64075;SDS011;50327;51.328;12.324;2023-03-24T08:48:05;6.13;;;1.65;;
64075;SDS011;50327;51.328;12.324;2023-03-24T08:50:32;4.75;;;1.60;;
64075;SDS011;50327;51.328;12.324;2023-03-24T08:52:58;2.88;;;1.48;;
64075;SDS011;50327;51.328;12.324;2023-03-24T08:55:24;2.90;;;1.42;;
64075;SDS011;50327;51.328;12.324;2023-03-24T08:57:49;5.28;;;1.55;;
64075;SDS011;50327;51.328;12.324;2023-03-24T09:00:15;2.28;;;1.23;;
64075;SDS011;50327;51.328;12.324;2023-03-24T09:02:42;3.72;;;1.40;;
64075;SDS011;50327;51.328;12.324;2023-03-24T09:05:09;2.10;;;1.20;;
64075;SDS011;50327;51.328;12.324;2023-03-24T09:07:35;3.97;;;1.42;;
64075;SDS011;50327;51.328;12.324;2023-03-24T09:10:00;2.67;;;1.40;;
64075;SDS011;50327;51.328;12.324;2023-03-24T09:12:25;2.50;;;1.40;;
64075;SDS011;50327;51.328;12.324;2023-03-24T09:14:51;2.28;;;1.38;;
64075;SDS011;50327;51.328;12.324;2023-03-24T09:17:16;3.33;;;1.20;;
64075;SDS011;50327;51.328;12.324;2023-03-24T09:19:42;2.60;;;1.20;;
64075;SDS011;50327;51.328;12.324;2023-03-24T09:22:07;2.38;;;1.30;;
64075;SDS011;50327;51.328;12.324;2023-03-24T09:24:32;3.03;;;1.30;;
64075;SDS011;50327;51.328;12.324;2023-03-24T09:26:58;2.63;;;1.30;;
64075;SDS011;50327;51.328;12.324;2023-03-24T09:29:23;1.95;;;1.20;;
64075;SDS011;50327;51.328;12.324;2023-03-24T09:31:48;3.45;;;1.20;;
64075;SDS011;50327;51.328;12.324;2023-03-24T09:34:14;2.78;;;1.13;;
64075;SDS011;50327;51.328;12.324;2023-03-24T09:36:40;5.78;;;1.33;;
64075;SDS011;50327;51.328;12.324;2023-03-24T09:39:06;1.73;;;1.00;;
64075;SDS011;50327;51.328;12.324;2023-03-24T09:41:31;3.38;;;1.30;;
64075;SDS011;50327;51.328;12.324;2023-03-24T09:44:08;1.98;;;1.25;;
64075;SDS011;50327;51.328;12.324;2023-03-24T09:46:42;4.55;;;1.48;;
64075;SDS011;50327;51.328;12.324;2023-03-24T09:49:12;2.28;;;1.20;;
64075;SDS011;50327;51.328;12.324;2023-03-24T09:51:41;2.97;;;1.15;;
64075;SDS011;50327;51.328;12.324;2023-03-24T09:54:20;3.05;;;1.20;;
64075;SDS011;50327;51.328;12.324;2023-03-24T09:56:46;2.50;;;1.20;;
64075;SDS011;50327;51.328;12.324;2023-03-24T09:59:17;3.17;;;1.17;;
64075;SDS011;50327;51.328;12.324;2023-03-24T10:01:43;7.00;;;1.30;;
64075;SDS011;50327;51.328;12.324;2023-03-24T10:04:12;2.13;;;1.20;;
64075;SDS011;50327;51.328;12.324;2023-03-24T10:06:39;4.65;;;1.10;;
64075;SDS011;50327;51.328;12.324;2023-03-24T10:11:34;7.23;;;1.50;;
64075;SDS011;50327;51.328;12.324;2023-03-24T10:16:31;1.92;;;1.02;;
64075;SDS011;50327;51.328;12.324;2023-03-24T10:19:10;1.65;;;1.20;;
64075;SDS011;50327;51.328;12.324;2023-03-24T10:21:42;4.00;;;1.50;;
64075;SDS011;50327;51.328;12.324;2023-03-24T10:24:23;2.33;;;1.20;;
64075;SDS011;50327;51.328;12.324;2023-03-24T10:26:53;3.10;;;1.35;;
64075;SDS011;50327;51.328;12.324;2023-03-24T10:29:24;2.28;;;1.17;;
64075;SDS011;50327;51.328;12.324;2023-03-24T10:31:52;2.35;;;1.23;;
64075;SDS011;50327;51.328;12.324;2023-03-24T10:34:21;2.30;;;1.20;;
64075;SDS011;50327;51.328;12.324;2023-03-24T10:36:47;5.70;;;1.50;;
64075;SDS011;50327;51.328;12.324;2023-03-24T10:39:14;4.72;;;1.40;;
64075;SDS011;50327;51.328;12.324;2023-03-24T10:41:39;2.80;;;1.33;;
64075;SDS011;50327;51.328;12.324;2023-03-24T10:44:06;4.43;;;1.20;;
64075;SDS011;50327;51.328;12.324;2023-03-24T10:46:31;6.00;;;1.20;;
64075;SDS011;50327;51.328;12.324;2023-03-24T10:49:07;2.78;;;1.42;;
64075;SDS011;50327;51.328;12.324;2023-03-24T10:51:34;2.47;;;1.13;;
64075;SDS011;50327;51.328;12.324;2023-03-24T10:54:09;6.32;;;1.20;;
64075;SDS011;50327;51.328;12.324;2023-03-24T10:56:39;1.30;;;1.00;;
64075;SDS011;50327;51.328;12.324;2023-03-24T10:59:14;10.15;;;1.08;;
64075;SDS011;50327;51.328;12.324;2023-03-24T11:01:42;1.98;;;1.00;;
64075;SDS011;50327;51.328;12.324;2023-03-24T11:04:08;1.83;;;0.90;;
64075;SDS011;50327;51.328;12.324;2023-03-24T11:06:36;5.60;;;0.93;;
64075;SDS011;50327;51.328;12.324;2023-03-24T11:09:08;2.70;;;1.15;;
64075;SDS011;50327;51.328;12.324;2023-03-24T11:11:34;2.00;;;0.98;;
64075;SDS011;50327;51.328;12.324;2023-03-24T11:14:00;1.50;;;0.70;;
64075;SDS011;50327;51.328;12.324;2023-03-24T11:16:30;1.67;;;0.82;;
64075;SDS011;50327;51.328;12.324;2023-03-24T11:21:21;5.05;;;0.85;;
64075;SDS011;50327;51.328;12.324;2023-03-24T11:23:46;5.43;;;0.80;;
64075;SDS011;50327;51.328;12.324;2023-03-24T11:28:38;5.17;;;0.90;;
64075;SDS011;50327;51.328;12.324;2023-03-24T11:31:05;1.05;;;0.80;;
64075;SDS011;50327;51.328;12.324;2023-03-24T11:33:32;2.20;;;0.67;;
64075;SDS011;50327;51.328;12.324;2023-03-24T11:35:59;2.72;;;0.85;;
64075;SDS011;50327;51.328;12.324;2023-03-24T11:38:31;1.95;;;0.68;;
64075;SDS011;50327;51.328;12.324;2023-03-24T11:40:58;3.50;;;0.70;;
64075;SDS011;50327;51.328;12.324;2023-03-24T11:43:25;2.90;;;0.90;;
64075;SDS011;50327;51.328;12.324;2023-03-24T11:45:55;2.50;;;1.05;;
64075;SDS011;50327;51.328;12.324;2023-03-24T11:50:54;4.43;;;0.90;;
64075;SDS011;50327;51.328;12.324;2023-03-24T11:53:21;1.45;;;0.63;;
64075;SDS011;50327;51.328;12.324;2023-03-24T11:58:24;3.63;;;1.27;;
64075;SDS011;50327;51.328;12.324;2023-03-24T12:01:11;2.03;;;1.00;;
64075;SDS011;50327;51.328;12.324;2023-03-24T12:03:47;1.85;;;0.90;;
64075;SDS011;50327;51.328;12.324;2023-03-24T12:11:06;1.98;;;0.90;;
64075;SDS011;50327;51.328;12.324;2023-03-24T12:13:35;4.45;;;1.35;;
64075;SDS011;50327;51.328;12.324;2023-03-24T12:26:12;2.00;;;1.00;;
64075;SDS011;50327;51.328;12.324;2023-03-24T12:36:41;2.65;;;1.00;;
64075;SDS011;50327;51.328;12.324;2023-03-24T12:39:13;1.65;;;0.75;;
64075;SDS011;50327;51.328;12.324;2023-03-24T12:41:47;2.70;;;0.73;;
64075;SDS011;50327;51.328;12.324;2023-03-24T12:46:52;3.45;;;1.52;;
64075;SDS011;50327;51.328;12.324;2023-03-24T12:52:27;2.72;;;0.90;;
64075;SDS011;50327;51.328;12.324;2023-03-24T12:57:12;8.35;;;1.35;;
64075;SDS011;50327;51.328;12.324;2023-03-24T12:59:40;3.47;;;1.23;;
64075;SDS011;50327;51.328;12.324;2023-03-24T13:02:24;2.30;;;0.73;;
64075;SDS011;50327;51.328;12.324;2023-03-24T13:04:51;4.50;;;1.13;;
64075;SDS011;50327;51.328;12.324;2023-03-24T13:07:18;1.70;;;1.00;;
64075;SDS011;50327;51.328;12.324;2023-03-24T13:14:47;4.97;;;1.08;;
64075;SDS011;50327;51.328;12.324;2023-03-24T13:17:18;2.05;;;1.00;;
64075;SDS011;50327;51.328;12.324;2023-03-24T13:19:45;3.28;;;1.33;;
64075;SDS011;50327;51.328;12.324;2023-03-24T13:22:13;2.83;;;1.00;;
64075;SDS011;50327;51.328;12.324;2023-03-24T13:24:39;2.67;;;1.20;;
64075;SDS011;50327;51.328;12.324;2023-03-24T13:27:14;3.47;;;1.30;;
64075;SDS011;50327;51.328;12.324;2023-03-24T13:34:45;2.42;;;1.15;;
64075;SDS011;50327;51.328;12.324;2023-03-24T13:37:16;5.25;;;1.30;;
64075;SDS011;50327;51.328;12.324;2023-03-24T13:39:43;3.45;;;1.45;;
64075;SDS011;50327;51.328;12.324;2023-03-24T13:42:26;3.83;;;1.17;;
64075;SDS011;50327;51.328;12.324;2023-03-24T13:44:53;5.15;;;1.33;;
64075;SDS011;50327;51.328;12.324;2023-03-24T13:47:18;3.90;;;1.35;;
64075;SDS011;50327;51.328;12.324;2023-03-24T13:49:59;4.43;;;1.27;;
64075;SDS011;50327;51.328;12.324;2023-03-24T13:54:52;7.18;;;1.48;;
64075;SDS011;50327;51.328;12.324;2023-03-24T13:57:19;3.33;;;1.10;;
64075;SDS011;50327;51.328;12.324;2023-03-24T14:05:09;3.40;;;1.40;;
64075;SDS011;50327;51.328;12.324;2023-03-24T14:15:27;5.15;;;1.35;;
64075;SDS011;50327;51.328;12.324;2023-03-24T14:20:25;5.63;;;1.13;;
64075;SDS011;50327;51.328;12.324;2023-03-24T14:22:51;2.22;;;1.30;;
64075;SDS011;50327;51.328;12.324;2023-03-24T14:27:42;3.90;;;1.23;;
64075;SDS011;50327;51.328;12.324;2023-03-24T14:30:24;5.43;;;1.58;;
64075;SDS011;50327;51.328;12.324;2023-03-24T14:32:54;1.45;;;0.93;;
64075;SDS011;50327;51.328;12.324;2023-03-24T14:35:33;1.85;;;0.82;;
64075;SDS011;50327;51.328;12.324;2023-03-24T14:40:35;3.38;;;1.15;;
64075;SDS011;50327;51.328;12.324;2023-03-24T14:46:03;8.43;;;1.08;;
64075;SDS011;50327;51.328;12.324;2023-03-24T14:48:31;1.42;;;0.80;;
64075;SDS011;50327;51.328;12.324;2023-03-24T14:50:58;1.50;;;0.80;;
64075;SDS011;50327;51.328;12.324;2023-03-24T14:53:24;2.38;;;1.00;;
64075;SDS011;50327;51.328;12.324;2023-03-24T14:55:50;2.70;;;1.05;;
64075;SDS011;50327;51.328;12.324;2023-03-24T15:00:43;3.83;;;1.00;;
64075;SDS011;50327;51.328;12.324;2023-03-24T15:03:10;3.33;;;1.20;;
64075;SDS011;50327;51.328;12.324;2023-03-24T15:05:40;4.13;;;1.13;;
64075;SDS011;50327;51.328;12.324;2023-03-24T15:08:12;5.38;;;1.13;;
64075;SDS011;50327;51.328;12.324;2023-03-24T15:10:41;3.13;;;1.17;;
64075;SDS011;50327;51.328;12.324;2023-03-24T15:18:44;3.10;;;1.40;;
64075;SDS011;50327;51.328;12.324;2023-03-24T15:21:13;4.90;;;1.20;;
64075;SDS011;50327;51.328;12.324;2023-03-24T15:23:39;8.07;;;1.08;;
64075;SDS011;50327;51.328;12.324;2023-03-24T15:26:10;2.33;;;0.93;;
64075;SDS011;50327;51.328;12.324;2023-03-24T15:28:36;4.40;;;1.23;;
64075;SDS011;50327;51.328;12.324;2023-03-24T15:31:01;1.92;;;0.93;;
64075;SDS011;50327;51.328;12.324;2023-03-24T15:33:27;4.10;;;1.30;;
64075;SDS011;50327;51.328;12.324;2023-03-24T15:35:59;18.42;;;1.40;;
64075;SDS011;50327;51.328;12.324;2023-03-24T15:38:27;3.95;;;0.82;;
64075;SDS011;50327;51.328;12.324;2023-03-24T15:40:55;3.47;;;1.17;;
64075;SDS011;50327;51.328;12.324;2023-03-24T15:43:22;6.40;;;1.10;;
64075;SDS011;50327;51.328;12.324;2023-03-24T15:45:51;3.90;;;1.17;;
64075;SDS011;50327;51.328;12.324;2023-03-24T15:48:17;5.75;;;1.50;;
64075;SDS011;50327;51.328;12.324;2023-03-24T15:50:59;3.35;;;1.13;;
64075;SDS011;50327;51.328;12.324;2023-03-24T15:53:29;2.28;;;0.90;;
64075;SDS011;50327;51.328;12.324;2023-03-24T16:01:34;6.00;;;1.27;;
64075;SDS011;50327;51.328;12.324;2023-03-24T16:04:15;7.30;;;1.50;;
64075;SDS011;50327;51.328;12.324;2023-03-24T16:06:45;6.07;;;1.13;;
64075;SDS011;50327;51.328;12.324;2023-03-24T16:09:13;5.88;;;1.45;;
64075;SDS011;50327;51.328;12.324;2023-03-24T16:11:39;3.72;;;1.10;;
64075;SDS011;50327;51.328;12.324;2023-03-24T16:14:38;7.95;;;1.58;;
64075;SDS011;50327;51.328;12.324;2023-03-24T16:16:58;5.95;;;1.20;;
64075;SDS011;50327;51.328;12.324;2023-03-24T16:19:23;3.80;;;1.38;;
64075;SDS011;50327;51.328;12.324;2023-03-24T16:21:49;5.35;;;1.17;;
64075;SDS011;50327;51.328;12.324;2023-03-24T16:24:14;2.80;;;1.13;;
64075;SDS011;50327;51.328;12.324;2023-03-24T16:26:40;9.00;;;1.63;;
64075;SDS011;50327;51.328;12.324;2023-03-24T16:31:31;3.17;;;1.20;;
64075;SDS011;50327;51.328;12.324;2023-03-24T16:33:59;3.20;;;1.40;;
64075;SDS011;50327;51.328;12.324;2023-03-24T16:36:24;5.72;;;1.92;;
64075;SDS011;50327;51.328;12.324;2023-03-24T16:38:53;3.53;;;1.05;;
64075;SDS011;50327;51.328;12.324;2023-03-24T16:41:19;4.88;;;1.30;;
64075;SDS011;50327;51.328;12.324;2023-03-24T16:43:44;6.13;;;1.75;;
64075;SDS011;50327;51.328;12.324;2023-03-24T16:46:13;5.45;;;1.45;;
64075;SDS011;50327;51.328;12.324;2023-03-24T16:48:40;3.55;;;1.60;;
64075;SDS011;50327;51.328;12.324;2023-03-24T16:51:08;4.13;;;1.50;;
64075;SDS011;50327;51.328;12.324;2023-03-24T16:53:34;5.13;;;1.80;;
64075;SDS011;50327;51.328;12.324;2023-03-24T16:55:59;6.72;;;1.58;;
64075;SDS011;50327;51.328;12.324;2023-03-24T16:58:24;11.40;;;1.83;;
64075;SDS011;50327;51.328;12.324;2023-03-24T17:00:50;7.97;;;1.50;;
64075;SDS011;50327;51.328;12.324;2023-03-24T17:03:15;6.85;;;2.00;;
64075;SDS011;50327;51.328;12.324;2023-03-24T17:05:42;5.20;;;1.95;;
64075;SDS011;50327;51.328;12.324;2023-03-24T17:08:08;6.10;;;2.00;;
64075;SDS011;50327;51.328;12.324;2023-03-24T17:10:34;5.90;;;2.20;;
64075;SDS011;50327;51.328;12.324;2023-03-24T17:12:59;9.07;;;1.63;;
64075;SDS011;50327;51.328;12.324;2023-03-24T17:15:27;5.82;;;1.77;;
64075;SDS011;50327;51.328;12.324;2023-03-24T17:17:53;6.18;;;1.98;;
64075;SDS011;50327;51.328;12.324;2023-03-24T17:20:19;5.43;;;1.58;;